Time;durP1;ratioP1;P1;durP2;ratioP2;P2;SDS_P1;SDS_P2;PMS_P1;PMS_P2;Temp;Humidity;BMP_temperature;BMP_pressure;BME280_temperature;BME280_humidity;BME280_pressure;Samples;Min_cycle;Max_cycle;Signal;HPM_P1;HPM_P2
2022/02/04 00:05:56;;;;;;;10.23;6.73;;;13.50;57.80;;;;;;5008047;28;20564;-48
2022/02/04 00:23:46;;;;;;;9.90;8.50;;;12.80;59.50;;;;;;5006401;28;20866;-47
2022/02/04 00:26:18;;;;;;;6.93;6.30;;;12.70;59.80;;;;;;5005491;28;20361;-53
2022/02/04 00:29:04;;;;;;;7.27;6.57;;;12.70;59.90;;;;;;5002425;28;20457;-53
2022/02/04 00:31:41;;;;;;;6.60;6.00;;;12.70;59.80;;;;;;5002108;28;20460;-53
2022/02/04 00:34:11;;;;;;;6.37;5.77;;;12.70;59.60;;;;;;5007447;28;20456;-48
2022/02/04 00:39:22;;;;;;;6.73;6.13;;;12.60;59.80;;;;;;5004155;28;20481;-50
2022/02/04 00:41:49;;;;;;;6.20;5.70;;;12.60;59.70;;;;;;5006784;28;20503;-49
2022/02/04 00:44:22;;;;;;;6.80;6.20;;;12.50;60.00;;;;;;5003748;28;20440;-50
2022/02/04 00:57:07;;;;;;;6.70;6.00;;;12.60;59.60;;;;;;5007965;28;20452;-51
2022/02/04 01:26:37;;;;;;;8.90;6.20;;;12.40;59.70;;;;;;5004412;28;20498;-54
2022/02/04 01:29:04;;;;;;;6.33;5.50;;;12.30;59.90;;;;;;5002409;28;20807;-50
2022/02/04 01:31:30;;;;;;;5.77;5.27;;;12.50;59.80;;;;;;5008544;28;20209;-53
2022/02/04 01:33:56;;;;;;;12.73;5.57;;;12.40;59.60;;;;;;5006034;28;20485;-53
2022/02/04 01:36:22;;;;;;;6.40;5.90;;;12.40;59.60;;;;;;5008893;28;20433;-52
2022/02/04 01:38:48;;;;;;;6.07;5.13;;;12.30;59.80;;;;;;5004584;28;20233;-52
2022/02/04 01:41:14;;;;;;;5.03;4.53;;;12.50;59.60;;;;;;5004322;28;20673;-52
2022/02/04 01:43:41;;;;;;;6.10;5.50;;;12.30;59.80;;;;;;5005150;28;20285;-54
2022/02/04 01:46:09;;;;;;;5.50;4.97;;;12.20;59.80;;;;;;5005976;28;20943;-51
2022/02/04 01:48:36;;;;;;;7.27;5.50;;;12.40;59.70;;;;;;5004670;28;20459;-53
2022/02/04 01:51:03;;;;;;;5.27;4.77;;;12.50;59.30;;;;;;5002279;28;21331;-53
2022/02/04 01:53:30;;;;;;;5.80;5.27;;;12.60;59.10;;;;;;5007757;28;20444;-54
2022/02/04 01:56:03;;;;;;;4.73;4.30;;;12.50;58.90;;;;;;5007073;28;20477;-52
2022/02/04 01:58:29;;;;;;;9.73;4.30;;;12.50;59.20;;;;;;5002088;28;20455;-52
2022/02/04 02:00:55;;;;;;;5.00;4.50;;;12.60;59.00;;;;;;5003728;28;20496;-50
2022/02/04 02:03:21;;;;;;;6.93;5.00;;;12.50;58.70;;;;;;5002363;28;20445;-49
2022/02/04 02:05:48;;;;;;;5.90;5.30;;;12.30;59.30;;;;;;5003638;28;20201;-49
2022/02/04 02:08:15;;;;;;;7.43;4.57;;;12.30;59.60;;;;;;5004836;28;20452;-48
2022/02/04 02:10:44;;;;;;;7.00;4.53;;;12.30;59.70;;;;;;5000178;28;20441;-47
2022/02/04 02:48:07;;;;;;;4.07;3.50;;;12.20;61.40;;;;;;5005331;28;20441;-53
2022/02/04 02:50:58;;;;;;;4.73;4.10;;;12.20;61.90;;;;;;5017050;28;20435;-49
2022/02/04 02:58:46;;;;;;;5.20;4.67;;;12.40;61.70;;;;;;5008042;28;20499;-48
2022/02/04 03:01:12;;;;;;;6.77;4.50;;;12.30;62.20;;;;;;5008203;28;21368;-51
2022/02/04 03:03:37;;;;;;;5.83;4.50;;;12.40;61.90;;;;;;5008134;28;20524;-49
2022/02/04 03:06:03;;;;;;;5.77;4.70;;;12.60;61.60;;;;;;5006957;28;20276;-49
2022/02/04 03:08:29;;;;;;;6.07;4.30;;;12.60;61.30;;;;;;5008054;28;20198;-47
2022/02/04 03:10:57;;;;;;;5.77;4.47;;;12.70;61.30;;;;;;5006793;28;20190;-49
2022/02/04 03:13:25;;;;;;;5.00;4.50;;;12.70;61.30;;;;;;5005905;28;20190;-48
2022/02/04 03:15:59;;;;;;;5.30;4.60;;;12.80;61.70;;;;;;5007311;28;20815;-49
2022/02/04 03:18:27;;;;;;;5.47;4.97;;;12.70;61.60;;;;;;5008462;28;20491;-47
2022/02/04 03:20:57;;;;;;;5.07;4.30;;;12.70;61.80;;;;;;5008172;28;20850;-50
2022/02/04 03:23:25;;;;;;;5.73;4.67;;;12.70;61.80;;;;;;5004447;28;20484;-50
2022/02/04 03:25:57;;;;;;;5.07;4.57;;;12.60;62.20;;;;;;5007500;28;20452;-48
2022/02/04 03:28:26;;;;;;;4.83;4.37;;;12.60;62.50;;;;;;5007657;28;20536;-48
2022/02/04 03:30:54;;;;;;;7.80;4.60;;;12.70;62.30;;;;;;5006604;28;20441;-49
2022/02/04 03:33:23;;;;;;;5.20;4.43;;;12.60;62.40;;;;;;5003614;28;20484;-47
2022/02/04 03:35:49;;;;;;;7.50;4.47;;;12.70;62.30;;;;;;5006683;28;20790;-50
2022/02/04 03:38:14;;;;;;;4.63;4.13;;;12.70;62.20;;;;;;5006535;28;20531;-52
2022/02/04 03:40:40;;;;;;;5.87;4.50;;;12.80;62.20;;;;;;5005576;28;20233;-48
2022/02/04 03:43:06;;;;;;;8.40;4.40;;;12.80;62.00;;;;;;5006529;28;20201;-48
2022/02/04 03:45:31;;;;;;;5.20;4.70;;;12.80;62.10;;;;;;5005467;28;20630;-50
2022/02/04 03:47:57;;;;;;;5.40;4.90;;;12.70;62.40;;;;;;5011343;28;20244;-47
2022/02/04 03:50:22;;;;;;;8.27;4.73;;;12.70;62.30;;;;;;5005973;28;20628;-51
2022/02/04 03:52:48;;;;;;;7.37;4.10;;;12.80;62.50;;;;;;5006128;28;20668;-49
2022/02/04 03:55:14;;;;;;;4.60;4.20;;;12.80;62.40;;;;;;5005896;28;20194;-48
2022/02/04 03:57:41;;;;;;;4.70;3.90;;;12.80;62.50;;;;;;5004071;28;20198;-47
2022/02/04 04:00:09;;;;;;;4.70;4.13;;;12.80;62.60;;;;;;5005253;28;20540;-47
2022/02/04 04:02:35;;;;;;;4.30;3.87;;;12.80;62.60;;;;;;5004150;28;20444;-47
2022/02/04 04:05:00;;;;;;;4.67;4.10;;;12.70;62.60;;;;;;5004966;28;20451;-49
2022/02/04 04:07:26;;;;;;;4.87;4.37;;;12.60;62.80;;;;;;5001862;28;20233;-47
2022/02/04 04:10:00;;;;;;;5.43;4.40;;;12.60;62.90;;;;;;5003909;28;20597;-47
2022/02/04 04:12:25;;;;;;;6.90;4.70;;;12.60;63.00;;;;;;5003285;28;20450;-46
2022/02/04 04:14:54;;;;;;;6.47;4.47;;;12.40;63.30;;;;;;5004063;28;20451;-45
2022/02/04 04:17:20;;;;;;;5.97;4.50;;;12.40;63.50;;;;;;5004499;28;20202;-48
2022/02/04 04:19:46;;;;;;;5.63;4.90;;;12.50;63.30;;;;;;5005118;28;20491;-45
2022/02/04 04:22:11;;;;;;;5.33;4.83;;;12.50;63.30;;;;;;5005483;28;20202;-47
2022/02/04 04:24:37;;;;;;;4.90;4.43;;;12.50;63.30;;;;;;5006417;28;20695;-47
2022/02/04 04:27:03;;;;;;;4.60;4.20;;;12.60;63.20;;;;;;5003136;28;20207;-49
2022/02/04 04:29:28;;;;;;;4.90;4.43;;;12.30;63.60;;;;;;5004280;28;20302;-45
2022/02/04 04:31:54;;;;;;;5.33;4.30;;;12.30;63.90;;;;;;5004972;28;20453;-45
2022/02/04 04:34:20;;;;;;;5.10;4.60;;;12.40;63.90;;;;;;5002480;28;20221;-45
2022/02/04 04:36:45;;;;;;;4.93;4.43;;;12.50;63.80;;;;;;5007583;28;20276;-46
2022/02/04 04:39:27;;;;;;;6.20;5.07;;;12.60;63.60;;;;;;5005758;28;20284;-48
2022/02/04 05:30:08;;;;;;;13.30;8.57;;;12.80;63.00;;;;;;4970732;28;20441;-48
2022/02/04 05:32:33;;;;;;;9.10;8.13;;;12.80;63.10;;;;;;5004267;28;20803;-48
2022/02/04 05:35:00;;;;;;;9.77;7.03;;;12.80;62.90;;;;;;5004470;28;20436;-47
2022/02/04 05:37:26;;;;;;;8.93;6.47;;;12.90;62.90;;;;;;5002239;28;20261;-50
2022/02/04 05:42:22;;;;;;;10.30;6.90;;;12.90;62.90;;;;;;5007557;28;20237;-45
2022/02/04 05:44:55;;;;;;;7.30;6.20;;;12.90;63.10;;;;;;5005022;28;20198;-49
2022/02/04 05:47:21;;;;;;;7.70;6.33;;;12.90;63.00;;;;;;5010528;28;20457;-47
2022/02/04 05:50:03;;;;;;;9.10;6.40;;;12.90;63.00;;;;;;5010990;28;20441;-48
2022/02/04 05:52:33;;;;;;;5.73;4.93;;;12.90;62.80;;;;;;5013186;28;20194;-50
2022/02/04 05:57:27;;;;;;;7.43;6.20;;;12.90;62.50;;;;;;5006350;28;20563;-46
2022/02/04 06:02:53;;;;;;;8.60;7.63;;;12.90;62.10;;;;;;5007204;28;20473;-47
2022/02/04 06:24:24;;;;;;;6.10;5.50;;;12.80;63.50;;;;;;5006820;28;20498;-50
2022/02/04 06:26:51;;;;;;;6.93;6.30;;;12.80;62.90;;;;;;5007982;28;20852;-46
2022/02/04 06:29:17;;;;;;;7.20;5.50;;;12.90;62.80;;;;;;5008807;28;20559;-49
2022/02/04 06:31:42;;;;;;;6.47;5.13;;;13.00;62.50;;;;;;5008550;28;20447;-47
2022/02/04 06:34:08;;;;;;;8.93;6.37;;;13.10;62.40;;;;;;5007946;28;20225;-46
2022/02/04 06:36:34;;;;;;;7.27;6.33;;;13.20;61.90;;;;;;5004017;28;20217;-51
2022/02/04 06:38:59;;;;;;;9.30;6.00;;;13.20;61.70;;;;;;5009031;28;20225;-47
2022/02/04 06:41:25;;;;;;;6.63;6.03;;;13.20;61.40;;;;;;5013275;28;20226;-48
2022/02/04 06:43:50;;;;;;;6.57;5.97;;;13.20;60.70;;;;;;5013118;28;20571;-47
2022/02/04 06:46:16;;;;;;;6.23;5.60;;;13.20;60.60;;;;;;5018924;28;20194;-47
2022/02/04 06:48:47;;;;;;;7.23;5.93;;;13.00;60.40;;;;;;5015973;28;20229;-53
2022/02/04 06:51:13;;;;;;;6.17;5.57;;;12.90;60.80;;;;;;5016749;28;20684;-47
2022/02/04 06:53:39;;;;;;;10.60;6.27;;;12.80;60.90;;;;;;5004760;28;20460;-46
2022/02/04 06:56:04;;;;;;;11.90;6.70;;;12.70;61.10;;;;;;5019163;28;20201;-51
2022/02/04 06:58:30;;;;;;;7.77;6.40;;;12.70;61.50;;;;;;5013713;28;20661;-46
2022/02/04 07:00:56;;;;;;;8.17;7.17;;;12.70;61.30;;;;;;5015752;28;20238;-49
2022/02/04 07:03:22;;;;;;;8.90;6.20;;;12.80;61.10;;;;;;5014365;28;20269;-50
2022/02/04 07:05:58;;;;;;;6.67;6.07;;;12.80;61.10;;;;;;5014045;28;20516;-51
2022/02/04 07:08:34;;;;;;;6.10;5.50;;;12.80;60.90;;;;;;5014598;28;20271;-48
2022/02/04 07:21:45;;;;;;;7.67;6.40;;;12.40;60.30;;;;;;5000551;28;20496;-47
2022/02/04 07:24:11;;;;;;;6.77;5.80;;;12.50;60.60;;;;;;5013619;28;20440;-49
2022/02/04 07:26:37;;;;;;;6.80;5.80;;;12.50;60.50;;;;;;5018041;28;20198;-51
2022/02/04 07:29:03;;;;;;;7.10;5.93;;;12.30;60.60;;;;;;5008030;28;20252;-49
2022/02/04 07:31:33;;;;;;;6.00;5.47;;;12.40;60.80;;;;;;5005438;28;20186;-47
2022/02/04 07:34:42;;;;;;;6.63;5.53;;;12.40;60.70;;;;;;5013117;28;20933;-51
2022/02/04 07:42:18;;;;;;;5.50;5.00;;;12.50;60.20;;;;;;5012916;28;20595;-49
2022/02/04 07:44:44;;;;;;;7.80;6.13;;;12.50;60.20;;;;;;5014176;28;20463;-47
2022/02/04 07:47:11;;;;;;;6.37;5.77;;;12.50;60.30;;;;;;5015117;28;20272;-50
2022/02/04 07:49:37;;;;;;;5.40;4.90;;;12.50;60.30;;;;;;5003333;28;20198;-47
2022/02/04 07:52:03;;;;;;;6.40;5.63;;;12.40;60.30;;;;;;5014070;28;20487;-46
2022/02/04 07:54:28;;;;;;;7.20;5.00;;;12.20;60.30;;;;;;5016993;28;20205;-52
2022/02/04 07:56:54;;;;;;;6.10;5.47;;;12.20;60.70;;;;;;5013868;28;20240;-47
2022/02/04 07:59:19;;;;;;;7.30;6.03;;;12.10;61.20;;;;;;5012819;28;20193;-53
2022/02/04 08:01:46;;;;;;;8.30;5.90;;;11.90;61.10;;;;;;5011390;28;20703;-49
2022/02/04 08:04:20;;;;;;;6.53;5.83;;;11.90;61.90;;;;;;5012231;28;20202;-47
2022/02/04 08:06:52;;;;;;;7.17;5.30;;;12.00;62.00;;;;;;5016768;28;20437;-50
2022/02/04 08:09:29;;;;;;;7.20;5.83;;;12.00;61.80;;;;;;5011614;28;20520;-52
2022/02/04 08:25:57;;;;;;;6.50;5.73;;;12.00;61.10;;;;;;5011481;28;20448;-49
2022/02/04 08:31:06;;;;;;;7.00;6.30;;;12.10;61.10;;;;;;5011224;28;20440;-52
2022/02/04 08:34:15;;;;;;;7.07;5.37;;;12.20;60.90;;;;;;5007368;28;20484;-51
2022/02/04 08:39:30;;;;;;;5.70;5.20;;;12.40;60.30;;;;;;5007011;28;20483;-51
2022/02/04 08:55:22;;;;;;;6.43;4.83;;;11.70;62.20;;;;;;5011462;28;20515;-48
2022/02/04 09:00:36;;;;;;;7.03;5.20;;;11.60;61.90;;;;;;5006092;28;20497;-49
2022/02/04 09:03:13;;;;;;;6.17;4.90;;;11.80;62.70;;;;;;5012787;28;20467;-48
2022/02/04 09:05:40;;;;;;;5.63;4.83;;;12.10;61.90;;;;;;5009402;28;20923;-46
2022/02/04 09:08:26;;;;;;;5.00;4.50;;;12.00;61.80;;;;;;5014216;28;20963;-47
2022/02/04 09:10:53;;;;;;;5.37;4.87;;;12.10;62.00;;;;;;5006254;28;20445;-50
2022/02/04 09:19:00;;;;;;;5.93;5.40;;;12.20;60.90;;;;;;5007460;28;20490;-48
2022/02/04 09:21:49;;;;;;;5.17;4.67;;;12.30;60.70;;;;;;5011461;28;20492;-48
2022/02/04 09:24:12;;;;;;;4.10;3.80;;;12.20;60.00;;;;;;5007105;28;20459;-48
2022/02/04 09:26:39;;;;;;;4.73;4.20;;;12.20;59.70;;;;;;5009115;28;20494;-47
2022/02/04 09:29:05;;;;;;;5.30;4.80;;;12.30;59.60;;;;;;5008725;28;20448;-49
2022/02/04 09:31:32;;;;;;;6.93;4.57;;;12.60;59.80;;;;;;5011412;28;20428;-48
2022/02/04 09:33:57;;;;;;;4.20;3.80;;;12.60;59.30;;;;;;5008460;28;20213;-47
2022/02/04 09:36:23;;;;;;;4.63;4.23;;;12.60;59.10;;;;;;5010326;28;20433;-46
2022/02/04 09:38:49;;;;;;;5.33;3.93;;;12.60;58.70;;;;;;5012479;28;20233;-46
2022/02/04 09:41:21;;;;;;;4.50;4.10;;;12.60;58.70;;;;;;5009669;28;20279;-47
2022/02/04 09:43:50;;;;;;;4.50;4.03;;;12.80;58.90;;;;;;5009582;28;20194;-47
2022/02/04 09:46:17;;;;;;;4.77;3.93;;;12.80;58.60;;;;;;5008549;28;20440;-45
2022/02/04 09:48:48;;;;;;;4.90;3.77;;;13.00;57.60;;;;;;5009523;28;20440;-47
2022/02/04 09:51:18;;;;;;;7.20;4.53;;;12.70;57.80;;;;;;5010577;28;20448;-45
2022/02/04 10:13:18;;;;;;;3.63;2.97;;;12.50;57.40;;;;;;5011481;28;20945;-50
2022/02/04 10:18:28;;;;;;;2.73;2.50;;;12.70;56.90;;;;;;5004501;28;20483;-50
2022/02/04 10:21:03;;;;;;;3.93;2.70;;;12.80;57.10;;;;;;5000656;28;20492;-49
2022/02/04 10:23:55;;;;;;;2.77;2.57;;;12.90;56.90;;;;;;5007212;28;20864;-46
2022/02/04 10:26:21;;;;;;;3.07;2.87;;;12.90;56.80;;;;;;5008045;28;20601;-46
2022/02/04 10:28:47;;;;;;;4.53;2.23;;;12.90;57.20;;;;;;5006232;28;20472;-50
2022/02/04 10:31:22;;;;;;;2.30;2.10;;;12.80;56.10;;;;;;5009244;28;20491;-47
2022/02/04 10:33:59;;;;;;;2.60;2.40;;;12.80;56.80;;;;;;5013761;28;20447;-46
2022/02/04 10:36:58;;;;;;;2.47;2.27;;;12.80;56.50;;;;;;5012021;28;20433;-50
2022/02/04 10:40:20;;;;;;;2.70;2.47;;;12.90;56.20;;;;;;5014208;28;20521;-49
2022/02/04 11:01:34;;;;;;;2.30;2.10;;;12.80;55.80;;;;;;5006909;28;20492;-48
2022/02/04 11:04:00;;;;;;;2.50;2.30;;;12.60;56.30;;;;;;5020069;28;20515;-48
2022/02/04 11:06:53;;;;;;;4.70;1.90;;;12.30;55.90;;;;;;5020109;28;20432;-50
2022/02/04 11:21:47;;;;;;;2.93;2.63;;;12.50;56.70;;;;;;5013144;28;20432;-52
2022/02/04 11:31:42;;;;;;;2.70;1.77;;;12.30;56.10;;;;;;5010038;28;20491;-48
2022/02/04 11:36:48;;;;;;;1.30;1.20;;;12.40;56.60;;;;;;5010022;28;20924;-48
2022/02/04 11:54:40;;;;;;;2.40;1.90;;;12.60;55.10;;;;;;5009219;28;20461;-53
2022/02/04 11:57:06;;;;;;;6.33;2.30;;;12.40;54.70;;;;;;5011192;28;20441;-49
2022/02/04 11:59:37;;;;;;;2.07;1.80;;;12.60;55.30;;;;;;5003693;28;20429;-50
2022/02/04 12:02:26;;;;;;;3.17;2.10;;;12.70;54.70;;;;;;5010214;28;20489;-53
2022/02/04 12:05:11;;;;;;;4.37;2.03;;;12.60;54.40;;;;;;5011398;28;20552;-47
2022/02/04 12:07:55;;;;;;;1.90;1.40;;;12.30;54.20;;;;;;5009611;28;20959;-50
2022/02/04 12:10:24;;;;;;;3.03;1.87;;;12.50;54.70;;;;;;5002600;28;20499;-48
2022/02/04 12:12:56;;;;;;;1.63;1.50;;;12.60;54.30;;;;;;5006761;28;20939;-48
2022/02/04 12:15:28;;;;;;;2.40;1.60;;;12.60;53.90;;;;;;5006475;28;20449;-49
2022/02/04 12:17:54;;;;;;;2.90;2.33;;;12.60;54.00;;;;;;5010390;28;20892;-48
2022/02/04 12:20:53;;;;;;;2.03;1.83;;;12.60;54.20;;;;;;5009747;28;20476;-50
2022/02/04 12:23:40;;;;;;;2.60;2.13;;;12.70;54.10;;;;;;5007166;28;20440;-50
2022/02/04 12:26:08;;;;;;;2.20;1.40;;;12.70;53.60;;;;;;5008115;28;20448;-50
2022/02/04 12:28:43;;;;;;;1.10;1.00;;;12.60;53.70;;;;;;5011928;28;20449;-51
2022/02/04 12:31:11;;;;;;;1.77;1.50;;;12.60;53.70;;;;;;5010199;28;20432;-51
2022/02/04 12:33:40;;;;;;;1.97;1.67;;;12.70;53.80;;;;;;5009277;28;20449;-51
2022/02/04 12:36:10;;;;;;;1.60;1.33;;;12.90;53.70;;;;;;5005596;28;20440;-54
2022/02/04 12:38:36;;;;;;;1.83;0.97;;;13.00;53.40;;;;;;5004762;28;20472;-48
2022/02/04 12:41:02;;;;;;;2.30;1.73;;;12.90;53.40;;;;;;5009707;28;20849;-47
2022/02/04 12:43:27;;;;;;;2.17;1.80;;;12.60;53.70;;;;;;5009131;28;20194;-46
2022/02/04 12:45:53;;;;;;;2.80;1.97;;;12.60;54.60;;;;;;5008966;28;20186;-51
2022/02/04 12:48:19;;;;;;;2.90;2.00;;;12.70;54.10;;;;;;5008297;28;20194;-53
2022/02/04 12:50:56;;;;;;;1.40;1.30;;;12.60;54.10;;;;;;5010161;28;20198;-47
2022/02/04 12:53:25;;;;;;;5.50;3.40;;;12.60;54.30;;;;;;5009280;28;20463;-48
2022/02/04 12:56:32;;;;;;;2.40;1.70;;;12.50;53.80;;;;;;5010018;28;20432;-46
2022/02/04 12:59:53;;;;;;;1.13;1.10;;;12.30;53.80;;;;;;5006057;28;20480;-52
2022/02/04 13:07:32;;;;;;;2.13;1.27;;;12.30;54.00;;;;;;5009083;28;20435;-54
2022/02/04 13:09:58;;;;;;;1.43;1.13;;;12.40;54.20;;;;;;5012589;28;20503;-45
2022/02/04 13:12:24;;;;;;;1.27;1.17;;;12.20;53.40;;;;;;5008966;28;20468;-48
2022/02/04 13:14:50;;;;;;;1.67;1.33;;;12.20;53.80;;;;;;5002819;28;20473;-49
2022/02/04 13:17:29;;;;;;;1.13;1.03;;;12.30;53.70;;;;;;5004981;28;20198;-45
2022/02/04 13:19:56;;;;;;;1.63;1.10;;;12.10;52.90;;;;;;5012653;28;20463;-46
2022/02/04 13:22:22;;;;;;;1.73;1.60;;;12.10;53.10;;;;;;5015262;28;20489;-49
2022/02/04 13:25:07;;;;;;;1.40;1.30;;;12.20;53.30;;;;;;5005562;28;20514;-49
2022/02/04 13:27:33;;;;;;;1.40;1.30;;;12.10;53.30;;;;;;5004393;28;20656;-50
2022/02/04 13:29:58;;;;;;;1.33;1.23;;;12.00;52.70;;;;;;5011238;28;20448;-48
2022/02/04 13:32:26;;;;;;;1.77;1.10;;;12.00;53.20;;;;;;5008593;28;20251;-47
2022/02/04 13:34:53;;;;;;;2.10;1.10;;;12.20;53.50;;;;;;5010723;28;20389;-51
2022/02/04 13:37:28;;;;;;;1.10;1.00;;;12.00;53.00;;;;;;5009807;28;20272;-46
2022/02/04 13:40:01;;;;;;;1.27;1.17;;;12.00;52.40;;;;;;5009028;28;20472;-50
2022/02/04 13:42:50;;;;;;;1.20;1.10;;;11.80;52.60;;;;;;5006910;28;20468;-51
2022/02/04 13:45:30;;;;;;;1.50;1.40;;;11.80;52.80;;;;;;5009241;28;20445;-45
2022/02/04 13:48:05;;;;;;;1.83;1.40;;;11.80;53.10;;;;;;5008100;28;20440;-47
2022/02/04 13:55:37;;;;;;;1.43;1.33;;;11.80;52.60;;;;;;5008528;28;20268;-47
2022/02/04 13:58:35;;;;;;;1.57;1.47;;;11.90;52.90;;;;;;5008644;28;20447;-47
2022/02/04 14:01:16;;;;;;;3.50;1.57;;;11.90;53.40;;;;;;5008805;28;20496;-46
2022/02/04 14:03:48;;;;;;;1.57;1.30;;;11.90;52.70;;;;;;5002614;28;20503;-50
2022/02/04 14:06:17;;;;;;;1.50;1.30;;;11.70;52.80;;;;;;5008417;28;20436;-50
2022/02/04 14:11:13;;;;;;;1.70;1.60;;;12.30;52.50;;;;;;5011112;28;20578;-51
2022/02/04 14:13:39;;;;;;;1.60;1.50;;;12.40;52.00;;;;;;5011344;28;20791;-46
2022/02/04 14:16:07;;;;;;;2.90;2.20;;;12.40;52.00;;;;;;5012383;28;20463;-51
2022/02/04 14:18:35;;;;;;;1.57;1.47;;;12.20;51.60;;;;;;5013264;28;20190;-45
2022/02/04 14:21:02;;;;;;;1.57;1.47;;;11.80;51.20;;;;;;5012111;28;20638;-45
2022/02/04 14:23:28;;;;;;;2.37;1.57;;;11.90;51.90;;;;;;5012346;28;20437;-46
2022/02/04 14:26:05;;;;;;;1.33;1.23;;;11.90;51.80;;;;;;5011763;28;20798;-52
2022/02/04 14:31:09;;;;;;;1.23;1.13;;;11.90;52.60;;;;;;5011784;28;20437;-48
2022/02/04 14:36:23;;;;;;;2.73;1.70;;;12.40;52.40;;;;;;5008864;28;20429;-51
2022/02/04 14:50:08;;;;;;;1.70;1.50;;;12.30;51.40;;;;;;5006328;28;20478;-48
2022/02/04 15:02:44;;;;;;;1.63;1.27;;;12.20;51.80;;;;;;4999205;28;20909;-50
2022/02/04 15:05:14;;;;;;;1.50;1.40;;;12.40;51.70;;;;;;5007536;28;20469;-48
2022/02/04 15:07:41;;;;;;;1.00;1.00;;;12.50;51.60;;;;;;5001824;28;20598;-47
2022/02/04 15:10:13;;;;;;;1.70;1.40;;;12.50;51.30;;;;;;5013172;28;20468;-53
2022/02/04 15:12:39;;;;;;;1.10;1.00;;;12.30;51.50;;;;;;5012420;28;20440;-51
2022/02/04 15:15:05;;;;;;;1.67;1.33;;;12.10;51.50;;;;;;5013157;28;20441;-50
2022/02/04 15:17:31;;;;;;;1.10;1.10;;;12.40;51.90;;;;;;5002328;28;20238;-50
2022/02/04 15:19:57;;;;;;;2.07;1.60;;;12.50;51.60;;;;;;5012989;28;21025;-53
2022/02/04 15:22:26;;;;;;;1.57;1.30;;;12.60;51.60;;;;;;5008571;28;20685;-52
2022/02/04 15:24:56;;;;;;;1.17;1.07;;;12.50;51.40;;;;;;5012457;28;20451;-50
2022/02/04 15:27:22;;;;;;;1.67;1.30;;;12.50;51.70;;;;;;4997599;28;20445;-51
2022/02/04 15:29:51;;;;;;;1.13;0.97;;;12.50;51.80;;;;;;5012368;28;20468;-50
2022/02/04 15:32:16;;;;;;;1.67;1.07;;;12.60;51.60;;;;;;5007822;28;20222;-50
2022/02/04 15:34:42;;;;;;;1.00;0.90;;;12.70;51.20;;;;;;5007822;28;20465;-51
2022/02/04 15:37:07;;;;;;;1.30;1.17;;;12.80;51.40;;;;;;5009421;28;20649;-52
2022/02/04 15:39:34;;;;;;;1.10;1.00;;;12.70;51.20;;;;;;5012395;28;20194;-49
2022/02/04 15:42:07;;;;;;;1.37;1.27;;;12.90;51.00;;;;;;5010610;28;20340;-53
2022/02/04 16:04:47;;;;;;;1.23;1.13;;;12.20;52.10;;;;;;5008573;28;20523;-50
2022/02/04 16:07:17;;;;;;;2.70;1.03;;;12.30;52.20;;;;;;5006722;28;20205;-50
2022/02/04 16:09:48;;;;;;;2.07;1.00;;;12.40;52.00;;;;;;5007871;28;20489;-50
2022/02/04 16:12:28;;;;;;;1.30;1.10;;;12.10;52.30;;;;;;5006816;28;20444;-50
2022/02/04 16:15:05;;;;;;;1.17;1.07;;;12.30;52.60;;;;;;5004928;28;20472;-48
2022/02/04 16:17:35;;;;;;;1.33;1.17;;;12.40;52.50;;;;;;5015263;28;20448;-46
2022/02/04 16:20:19;;;;;;;1.10;1.00;;;12.30;52.30;;;;;;5009571;28;20873;-47
2022/02/04 16:25:42;;;;;;;1.87;1.20;;;12.20;52.60;;;;;;5005149;28;20504;-49
2022/02/04 16:30:52;;;;;;;1.20;1.10;;;12.30;52.70;;;;;;4998740;28;20503;-49
2022/02/04 16:33:17;;;;;;;0.93;0.83;;;12.10;53.00;;;;;;5007896;28;20449;-46
2022/02/04 16:35:43;;;;;;;0.80;0.80;;;12.20;53.20;;;;;;5008726;28;20201;-46
2022/02/04 16:38:16;;;;;;;1.17;0.90;;;12.20;53.00;;;;;;5008317;28;20628;-47
2022/02/04 16:40:45;;;;;;;1.17;1.07;;;12.20;52.90;;;;;;5010117;28;20933;-47
2022/02/04 16:43:11;;;;;;;1.10;1.00;;;12.20;52.70;;;;;;5005382;28;20534;-46
2022/02/04 16:45:36;;;;;;;2.33;0.90;;;12.20;52.60;;;;;;5008419;28;20835;-49
2022/02/04 16:48:02;;;;;;;1.00;0.77;;;12.20;52.60;;;;;;5011857;28;20194;-46
2022/02/04 16:50:29;;;;;;;0.87;0.83;;;12.30;52.70;;;;;;5002313;28;20209;-47
2022/02/04 16:52:54;;;;;;;1.00;0.83;;;12.40;52.50;;;;;;5007427;28;20206;-46
2022/02/04 16:55:21;;;;;;;0.90;0.77;;;12.40;52.30;;;;;;5002946;28;20520;-50
2022/02/04 16:57:50;;;;;;;1.10;1.00;;;12.50;52.20;;;;;;5009512;28;20232;-47
2022/02/04 17:00:21;;;;;;;2.00;1.37;;;12.40;52.10;;;;;;5010916;28;20437;-46
2022/02/04 17:02:49;;;;;;;2.00;1.43;;;12.40;52.10;;;;;;5010026;28;20447;-46
2022/02/04 17:05:16;;;;;;;2.50;1.17;;;12.40;52.40;;;;;;5014079;28;20440;-47
2022/02/04 17:07:43;;;;;;;1.27;1.23;;;12.30;52.20;;;;;;5009127;28;20884;-47
2022/02/04 17:10:11;;;;;;;1.40;1.30;;;12.30;52.40;;;;;;5011212;28;20437;-48
2022/02/04 17:12:41;;;;;;;1.70;1.20;;;12.30;52.00;;;;;;5010544;28;21026;-49
2022/02/04 17:15:08;;;;;;;1.30;1.13;;;12.20;52.20;;;;;;5017469;28;20939;-46
2022/02/04 17:17:34;;;;;;;2.30;1.07;;;12.10;52.10;;;;;;5009035;28;20433;-47
2022/02/04 17:20:09;;;;;;;1.47;0.90;;;11.90;52.20;;;;;;5011328;28;20436;-47
2022/02/04 17:22:37;;;;;;;1.33;1.23;;;11.90;52.20;;;;;;5013754;28;20213;-48
2022/02/04 17:25:08;;;;;;;1.93;1.17;;;11.80;52.70;;;;;;5003436;28;20932;-47
2022/02/04 17:27:35;;;;;;;1.20;0.87;;;11.90;52.90;;;;;;5008657;28;20444;-50
2022/02/04 17:30:04;;;;;;;1.17;0.97;;;11.80;52.70;;;;;;5011927;28;20444;-48
2022/02/04 17:32:30;;;;;;;1.27;1.00;;;11.60;52.80;;;;;;5009168;28;20433;-48
2022/02/04 17:34:57;;;;;;;0.70;0.70;;;11.70;53.00;;;;;;5010179;28;20452;-47
2022/02/04 17:37:23;;;;;;;2.00;1.00;;;11.80;52.70;;;;;;5000333;28;20312;-48
2022/02/04 17:39:52;;;;;;;1.00;1.00;;;11.30;53.00;;;;;;5012348;28;20524;-46
2022/02/04 17:42:22;;;;;;;0.80;0.70;;;11.40;53.30;;;;;;5010279;28;21202;-48
2022/02/04 17:44:49;;;;;;;1.17;1.00;;;11.40;53.40;;;;;;5013610;28;20425;-48
2022/02/04 17:47:16;;;;;;;1.37;1.20;;;11.30;53.30;;;;;;5006088;28;20500;-47
2022/02/04 17:49:51;;;;;;;1.30;0.97;;;11.30;53.20;;;;;;5012545;28;20437;-48
2022/02/04 17:55:20;;;;;;;3.23;2.50;;;11.50;52.80;;;;;;5014031;28;20467;-49
2022/02/04 17:57:55;;;;;;;1.53;1.13;;;11.40;52.70;;;;;;5012344;28;20448;-46
2022/02/04 18:08:19;;;;;;;2.20;0.97;;;11.10;53.40;;;;;;5008360;28;20458;-47
2022/02/04 18:10:45;;;;;;;1.30;1.20;;;11.10;53.00;;;;;;5012695;28;20547;-49
2022/02/04 18:13:10;;;;;;;2.80;1.00;;;11.00;53.10;;;;;;5009588;28;20204;-46
2022/02/04 18:15:42;;;;;;;1.33;1.07;;;10.90;53.50;;;;;;5008553;28;20621;-47
2022/02/04 18:18:09;;;;;;;1.20;1.10;;;11.00;53.70;;;;;;5010572;28;20274;-51
2022/02/04 18:20:35;;;;;;;1.37;1.03;;;11.20;53.50;;;;;;5011959;28;20491;-47
2022/02/04 18:23:01;;;;;;;1.47;1.10;;;11.20;53.60;;;;;;5011575;28;22079;-47
2022/02/04 18:25:26;;;;;;;1.67;1.27;;;10.90;54.10;;;;;;5011819;28;20626;-46
2022/02/04 18:27:52;;;;;;;3.03;1.30;;;10.90;54.40;;;;;;5010651;28;20598;-46
2022/02/04 18:30:18;;;;;;;1.20;1.00;;;11.00;54.20;;;;;;5014241;28;20186;-46
2022/02/04 18:32:46;;;;;;;1.50;1.40;;;11.00;54.20;;;;;;5010951;28;20281;-47
2022/02/04 18:35:14;;;;;;;1.20;1.10;;;10.90;54.30;;;;;;5009740;28;20452;-46
2022/02/04 18:37:44;;;;;;;1.27;1.17;;;11.20;54.20;;;;;;5011494;28;20468;-46
2022/02/04 18:40:53;;;;;;;1.17;1.07;;;11.10;54.00;;;;;;5011840;28;20449;-48
2022/02/04 18:45:46;;;;;;;1.70;1.30;;;11.00;54.20;;;;;;5011217;28;20803;-48
2022/02/04 18:48:16;;;;;;;1.30;1.10;;;11.20;54.60;;;;;;5010311;28;20444;-46
2022/02/04 18:53:23;;;;;;;1.43;1.10;;;10.90;54.70;;;;;;5010438;28;20928;-47
2022/02/04 18:58:22;;;;;;;1.43;1.33;;;11.10;54.80;;;;;;5011823;28;20445;-47
2022/02/04 19:00:51;;;;;;;2.20;1.70;;;11.40;54.60;;;;;;5017448;28;20526;-46
2022/02/04 19:03:23;;;;;;;1.90;1.80;;;11.30;54.80;;;;;;5009394;28;20433;-48
2022/02/04 19:06:07;;;;;;;1.63;1.50;;;11.20;55.20;;;;;;5011344;28;20444;-46
2022/02/04 19:08:39;;;;;;;1.67;1.53;;;11.10;55.50;;;;;;5011497;28;20822;-47
2022/02/04 19:11:05;;;;;;;1.60;1.50;;;11.20;55.80;;;;;;5011231;28;20822;-46
2022/02/04 19:13:47;;;;;;;1.63;1.00;;;11.30;55.70;;;;;;5013185;28;21008;-46
2022/02/04 19:16:27;;;;;;;1.07;1.07;;;11.20;55.80;;;;;;5012331;28;20476;-46
2022/02/04 19:21:43;;;;;;;1.40;1.17;;;11.20;56.10;;;;;;5008028;28;20911;-47
2022/02/04 19:24:10;;;;;;;1.40;1.30;;;11.30;56.00;;;;;;5010961;28;20179;-46
2022/02/04 19:26:37;;;;;;;1.27;1.17;;;11.20;56.00;;;;;;5009864;28;20932;-50
2022/02/04 19:29:03;;;;;;;1.60;1.50;;;11.30;56.20;;;;;;5006583;28;20960;-50
2022/02/04 19:31:32;;;;;;;0.93;0.93;;;11.30;56.30;;;;;;5010594;28;20523;-46
2022/02/04 19:33:57;;;;;;;1.40;1.30;;;11.10;56.30;;;;;;4998466;28;20443;-48
2022/02/04 19:36:23;;;;;;;1.47;1.37;;;11.40;56.30;;;;;;5017260;28;20444;-46
2022/02/04 19:38:49;;;;;;;1.83;1.17;;;11.50;56.00;;;;;;5010993;28;20261;-46